Terminal Aerodrome Forecast
Issued by NWS

Home | Current Version | Previous Version | Text Only | Print | Product List | Glossary On
Versions: 1 2 3 4 5 6 7 8 9 10 11 12 13 14 15 16 17 18 19 20 21 22 23
996
FTUS43 KIND 230520
TAFHUF
TAF
KHUF 230520Z 2306/2406 20007KT P6SM SCT100
     FM231100 21005KT 4SM BR SCT015 BKN040
     FM231300 21004KT 2SM BR BKN015
     FM231600 20005KT 5SM BR BKN020
     FM231800 19006KT P6SM BKN035
     FM232000 18007KT P6SM BKN030
     FM232300 15006KT 6SM BR OVC025
     FM240200 15007KT 6SM BR OVC015
     FM240500 16010KT 6SM BR BKN025=

USA.gov is the U.S. government's official web portal to all federal, state and local government web resources and services.